Time;durP1;ratioP1;P1;durP2;ratioP2;P2;SDS_P1;SDS_P2;PMS_P1;PMS_P2;Temp;Humidity;BMP_temperature;BMP_pressure;BME280_temperature;BME280_humidity;BME280_pressure;Samples;Min_cycle;Max_cycle;Signal;HPM_P1;HPM_P2
2023/08/18 00:01:17;;;;;;;6.20;5.60;;;21.00;99.90;;;;;;5062941;28;20479;-72
2023/08/18 00:04:03;;;;;;;6.87;6.17;;;21.10;99.90;;;;;;5061355;28;20469;-72
2023/08/18 00:06:49;;;;;;;10.20;6.60;;;21.00;99.90;;;;;;5062624;28;20527;-72
2023/08/18 00:09:35;;;;;;;10.00;5.77;;;21.10;99.90;;;;;;5059152;28;20424;-72
2023/08/18 00:12:20;;;;;;;12.97;5.83;;;21.00;99.90;;;;;;5067190;28;20451;-72
2023/08/18 00:15:06;;;;;;;10.20;6.60;;;21.00;99.90;;;;;;5062088;28;20433;-72
2023/08/18 00:17:52;;;;;;;11.10;6.17;;;21.00;99.90;;;;;;5059582;28;20466;-72
2023/08/18 00:20:37;;;;;;;10.87;6.60;;;20.80;99.90;;;;;;5062489;28;20946;-72
2023/08/18 00:23:24;;;;;;;13.93;5.97;;;20.80;99.90;;;;;;5061222;28;20521;-72
2023/08/18 00:26:10;;;;;;;10.77;5.90;;;20.70;99.90;;;;;;5064706;28;20413;-72
2023/08/18 00:28:55;;;;;;;13.43;6.83;;;20.80;99.90;;;;;;5061811;28;20946;-72
2023/08/18 00:31:41;;;;;;;10.53;6.40;;;20.70;99.90;;;;;;5054389;28;21002;-72
2023/08/18 00:34:27;;;;;;;14.17;6.40;;;20.70;99.90;;;;;;5061717;28;20412;-72
2023/08/18 00:37:15;;;;;;;9.67;6.70;;;20.70;99.90;;;;;;5062159;28;20479;-72
2023/08/18 00:40:02;;;;;;;6.93;6.27;;;20.70;99.90;;;;;;5062804;28;20447;-72
2023/08/18 00:42:47;;;;;;;21.30;6.33;;;20.80;99.90;;;;;;5064639;28;20450;-72
2023/08/18 00:45:33;;;;;;;8.80;6.63;;;20.70;99.90;;;;;;5059036;28;20923;-72
2023/08/18 00:48:18;;;;;;;14.53;7.50;;;20.60;99.90;;;;;;5060869;28;20839;-72
2023/08/18 00:51:04;;;;;;;8.27;6.30;;;20.60;99.90;;;;;;5057757;28;20434;-72
2023/08/18 00:53:49;;;;;;;17.43;6.90;;;20.60;99.90;;;;;;5062748;28;20424;-72
2023/08/18 00:56:36;;;;;;;10.30;8.80;;;20.60;99.90;;;;;;5060080;28;20452;-72
2023/08/18 00:59:23;;;;;;;10.20;8.40;;;20.60;99.90;;;;;;5056711;28;20447;-72
2023/08/18 01:02:08;;;;;;;9.40;6.23;;;20.70;99.90;;;;;;5058845;28;20470;-72
2023/08/18 01:05:00;;;;;;;8.90;6.30;;;20.70;99.90;;;;;;5058137;28;20696;-72
2023/08/18 01:07:45;;;;;;;10.03;7.20;;;20.70;99.90;;;;;;5061499;28;20448;-72
2023/08/18 01:10:33;;;;;;;7.60;6.43;;;20.70;99.90;;;;;;5059620;28;20472;-72
2023/08/18 01:13:28;;;;;;;11.30;7.60;;;20.60;99.90;;;;;;5058090;28;20450;-72
2023/08/18 01:16:19;;;;;;;19.63;6.70;;;20.70;99.90;;;;;;5062382;28;20437;-72
2023/08/18 01:19:12;;;;;;;10.10;7.17;;;20.70;99.90;;;;;;5059203;28;20591;-72
2023/08/18 01:21:58;;;;;;;12.20;7.07;;;20.60;99.90;;;;;;5060419;28;20782;-72
2023/08/18 01:24:45;;;;;;;11.23;7.93;;;20.50;99.90;;;;;;5061261;28;20587;-72
2023/08/18 01:27:32;;;;;;;7.00;6.33;;;20.60;99.90;;;;;;5062043;28;20461;-72
2023/08/18 01:30:18;;;;;;;7.80;6.47;;;20.60;99.90;;;;;;5061262;28;20421;-72
2023/08/18 01:33:09;;;;;;;9.33;7.20;;;20.60;99.90;;;;;;5059654;28;20551;-72
2023/08/18 01:35:59;;;;;;;7.97;7.10;;;20.50;99.90;;;;;;5058586;28;20428;-72
2023/08/18 01:38:46;;;;;;;13.60;7.30;;;20.40;99.90;;;;;;5057600;28;20780;-72
2023/08/18 01:41:34;;;;;;;11.07;7.90;;;20.50;99.90;;;;;;5061515;28;20980;-72
2023/08/18 01:44:20;;;;;;;7.83;6.60;;;20.40;99.90;;;;;;5058120;28;20586;-72
2023/08/18 01:47:05;;;;;;;8.60;7.80;;;20.30;99.90;;;;;;5060051;28;20637;-72
2023/08/18 01:49:51;;;;;;;9.23;6.47;;;20.30;99.90;;;;;;5059637;28;20415;-72
2023/08/18 01:52:36;;;;;;;9.33;7.70;;;20.30;99.90;;;;;;5063439;28;20502;-72
2023/08/18 01:55:22;;;;;;;13.20;6.60;;;20.20;99.90;;;;;;5055805;28;20445;-72
2023/08/18 01:58:09;;;;;;;8.20;6.77;;;20.30;99.90;;;;;;5055297;28;20544;-72
2023/08/18 02:00:56;;;;;;;7.57;6.53;;;20.30;99.90;;;;;;5058948;28;20804;-72
2023/08/18 02:03:41;;;;;;;7.50;6.30;;;20.40;99.90;;;;;;5055088;28;20535;-72
2023/08/18 02:06:26;;;;;;;7.73;6.93;;;20.30;99.90;;;;;;5055656;28;20435;-73
2023/08/18 02:09:12;;;;;;;9.97;7.43;;;20.30;99.90;;;;;;5056250;28;20442;-72
2023/08/18 02:11:58;;;;;;;8.37;7.37;;;20.40;99.90;;;;;;5055796;28;20412;-72
2023/08/18 02:14:44;;;;;;;9.77;7.03;;;20.20;99.90;;;;;;5058920;28;20441;-72
2023/08/18 02:17:30;;;;;;;9.97;6.87;;;20.20;99.90;;;;;;5057897;28;20465;-72
2023/08/18 02:20:16;;;;;;;13.40;7.60;;;20.20;99.90;;;;;;5059353;28;20606;-72
2023/08/18 02:23:01;;;;;;;9.87;6.97;;;20.20;99.90;;;;;;5060840;28;20580;-72
2023/08/18 02:25:47;;;;;;;19.43;6.90;;;20.00;99.90;;;;;;5056290;28;21052;-72
2023/08/18 02:28:33;;;;;;;9.30;8.37;;;20.00;99.90;;;;;;5053895;28;21043;-72
2023/08/18 02:31:20;;;;;;;15.90;6.53;;;20.00;99.90;;;;;;5055741;28;20992;-73
2023/08/18 02:34:05;;;;;;;16.40;7.30;;;20.00;99.90;;;;;;5061311;28;20445;-72
2023/08/18 02:36:51;;;;;;;8.97;7.30;;;20.00;99.90;;;;;;5060126;28;20558;-72
2023/08/18 02:39:36;;;;;;;9.40;7.83;;;20.00;99.90;;;;;;5059112;28;20522;-72
2023/08/18 02:42:22;;;;;;;20.77;7.20;;;20.00;99.90;;;;;;5056369;28;20442;-72
2023/08/18 02:45:08;;;;;;;12.33;7.13;;;20.10;99.90;;;;;;5063485;28;20517;-72
2023/08/18 02:47:55;;;;;;;10.73;7.20;;;20.00;99.90;;;;;;5062013;28;20523;-73
2023/08/18 02:50:40;;;;;;;8.53;7.13;;;20.00;99.90;;;;;;5060624;28;20428;-72
2023/08/18 02:53:26;;;;;;;8.63;7.33;;;20.00;99.90;;;;;;5063600;28;20420;-72
2023/08/18 02:56:11;;;;;;;9.40;7.10;;;19.90;99.90;;;;;;5055364;28;20491;-72
2023/08/18 02:58:56;;;;;;;9.40;8.40;;;19.90;99.90;;;;;;5064144;28;20457;-72
2023/08/18 03:01:42;;;;;;;14.43;8.77;;;19.80;99.90;;;;;;5054697;28;20458;-72
2023/08/18 03:04:30;;;;;;;13.00;7.70;;;19.70;99.90;;;;;;5055526;28;20922;-72
2023/08/18 03:07:16;;;;;;;14.93;8.60;;;19.60;99.90;;;;;;5060066;28;20810;-72
2023/08/18 03:10:02;;;;;;;12.20;9.07;;;19.60;99.90;;;;;;5058098;28;20462;-72
2023/08/18 03:12:47;;;;;;;9.40;8.00;;;19.60;99.90;;;;;;5066127;28;20457;-72
2023/08/18 03:15:32;;;;;;;10.20;7.47;;;19.60;99.90;;;;;;5060766;28;21049;-72
2023/08/18 03:18:18;;;;;;;8.33;7.53;;;19.60;99.90;;;;;;5060881;28;20559;-72
2023/08/18 03:21:05;;;;;;;8.53;7.27;;;19.50;99.90;;;;;;5063865;28;20429;-72
2023/08/18 03:23:50;;;;;;;10.00;7.90;;;19.50;99.90;;;;;;5059444;28;20415;-72
2023/08/18 03:26:36;;;;;;;16.03;7.50;;;19.50;99.90;;;;;;5062024;28;20502;-72
2023/08/18 03:29:22;;;;;;;8.63;7.73;;;19.50;99.90;;;;;;5061352;28;20416;-72
2023/08/18 03:32:07;;;;;;;9.23;7.60;;;19.50;99.90;;;;;;5061309;28;20775;-72
2023/08/18 03:34:54;;;;;;;9.43;8.30;;;19.40;99.90;;;;;;5059467;28;20806;-72
2023/08/18 03:37:40;;;;;;;9.10;6.67;;;19.40;99.90;;;;;;5059819;28;20996;-72
2023/08/18 03:40:26;;;;;;;17.93;9.00;;;19.40;99.90;;;;;;5062534;28;20754;-72
2023/08/18 03:43:12;;;;;;;8.67;7.50;;;19.40;99.90;;;;;;5062292;28;20432;-72
2023/08/18 03:45:59;;;;;;;8.93;6.57;;;19.50;99.90;;;;;;5061809;28;21073;-72
2023/08/18 03:48:45;;;;;;;10.60;7.97;;;19.50;99.90;;;;;;5062466;28;20421;-72
2023/08/18 03:51:31;;;;;;;9.20;7.13;;;19.40;99.90;;;;;;5059853;28;20914;-72
2023/08/18 03:54:17;;;;;;;11.43;7.83;;;19.50;99.90;;;;;;5059901;28;20569;-72
2023/08/18 03:57:03;;;;;;;10.17;8.30;;;19.40;99.90;;;;;;5059365;28;20503;-72
2023/08/18 03:59:48;;;;;;;14.80;8.73;;;19.30;99.90;;;;;;5060016;28;20457;-72
2023/08/18 04:02:34;;;;;;;8.10;7.30;;;19.30;99.90;;;;;;5063792;28;20485;-72
2023/08/18 04:05:19;;;;;;;9.97;8.00;;;19.20;99.90;;;;;;5057175;28;20486;-72
2023/08/18 04:08:06;;;;;;;9.00;7.40;;;19.30;99.90;;;;;;5063441;28;20492;-72
2023/08/18 04:10:53;;;;;;;14.57;7.10;;;19.30;99.90;;;;;;5056273;28;20974;-72
2023/08/18 04:13:38;;;;;;;14.23;7.43;;;19.20;99.90;;;;;;5061557;28;20940;-72
2023/08/18 04:16:24;;;;;;;7.73;6.93;;;19.20;99.90;;;;;;5058366;28;20580;-72
2023/08/18 04:19:09;;;;;;;9.53;8.10;;;19.20;99.90;;;;;;5062053;28;20821;-72
2023/08/18 04:21:55;;;;;;;13.43;8.50;;;19.20;99.90;;;;;;5059341;28;20450;-72
2023/08/18 04:24:41;;;;;;;12.73;7.43;;;19.10;99.90;;;;;;5062161;28;20479;-72
2023/08/18 04:27:28;;;;;;;13.13;8.10;;;19.10;99.90;;;;;;5062398;28;20800;-72
2023/08/18 04:30:14;;;;;;;12.30;8.50;;;19.20;99.90;;;;;;5060266;28;20462;-71
2023/08/18 04:33:00;;;;;;;14.20;7.93;;;19.30;99.90;;;;;;5060154;28;20944;-72
2023/08/18 04:35:45;;;;;;;12.83;8.77;;;19.30;99.90;;;;;;5056900;28;20644;-72
2023/08/18 04:38:31;;;;;;;12.00;7.80;;;19.30;99.90;;;;;;5061073;28;20522;-72
2023/08/18 04:41:16;;;;;;;10.87;7.67;;;19.30;99.90;;;;;;5057838;28;20746;-72
2023/08/18 04:44:04;;;;;;;10.20;7.50;;;19.20;99.90;;;;;;5065528;28;20423;-72
2023/08/18 04:46:49;;;;;;;7.20;6.50;;;19.20;99.90;;;;;;5058471;28;20436;-72
2023/08/18 04:49:35;;;;;;;8.73;7.27;;;19.10;99.90;;;;;;5061941;28;21771;-72
2023/08/18 04:52:21;;;;;;;9.80;8.03;;;19.10;99.90;;;;;;5061479;28;20461;-72
2023/08/18 04:55:07;;;;;;;8.60;7.60;;;19.10;99.90;;;;;;5053592;28;20936;-72
2023/08/18 04:57:52;;;;;;;10.10;6.90;;;19.10;99.90;;;;;;5051766;28;20440;-72
2023/08/18 05:00:40;;;;;;;9.37;7.30;;;19.20;99.90;;;;;;5057469;28;20491;-72
2023/08/18 05:03:25;;;;;;;8.23;6.87;;;19.10;99.90;;;;;;5063927;28;20480;-72
2023/08/18 05:06:12;;;;;;;8.27;6.33;;;19.20;99.90;;;;;;5060700;28;21094;-72
2023/08/18 05:08:57;;;;;;;8.57;6.90;;;19.40;99.90;;;;;;5062417;28;20473;-72
2023/08/18 05:11:43;;;;;;;8.20;7.00;;;19.40;99.90;;;;;;5058028;28;21003;-72
2023/08/18 05:14:29;;;;;;;11.83;7.63;;;19.40;99.90;;;;;;5059928;28;20441;-72
2023/08/18 05:17:16;;;;;;;12.00;7.70;;;19.30;99.90;;;;;;5057007;28;20518;-72
2023/08/18 05:20:01;;;;;;;10.33;8.00;;;19.30;99.90;;;;;;5058196;28;20829;-72
2023/08/18 05:22:46;;;;;;;16.57;8.00;;;19.30;99.90;;;;;;5056507;28;20450;-72
2023/08/18 05:25:32;;;;;;;8.63;7.73;;;19.40;99.90;;;;;;5059749;28;21021;-72
2023/08/18 05:28:18;;;;;;;8.50;7.60;;;19.40;99.90;;;;;;5050063;28;20567;-72
2023/08/18 05:31:03;;;;;;;10.20;7.00;;;19.50;99.90;;;;;;5060325;28;20585;-72
2023/08/18 05:33:50;;;;;;;8.20;7.13;;;19.50;99.90;;;;;;5062729;28;20477;-72
2023/08/18 05:36:36;;;;;;;12.33;8.73;;;19.50;99.90;;;;;;5056407;28;20805;-71
2023/08/18 05:39:21;;;;;;;9.33;8.40;;;19.60;99.90;;;;;;5061570;28;20424;-72
2023/08/18 05:42:07;;;;;;;9.20;8.20;;;19.60;99.90;;;;;;5065973;28;20466;-72
2023/08/18 05:44:52;;;;;;;16.37;8.37;;;19.60;99.90;;;;;;5059255;28;21350;-72
2023/08/18 05:47:38;;;;;;;13.90;8.53;;;19.70;99.90;;;;;;5060830;28;20474;-72
2023/08/18 05:50:25;;;;;;;15.60;9.10;;;19.80;99.90;;;;;;5056455;28;20419;-72
2023/08/18 05:53:10;;;;;;;10.83;9.20;;;19.80;99.90;;;;;;5062358;28;20908;-72
2023/08/18 05:55:56;;;;;;;9.40;7.93;;;19.90;99.90;;;;;;5058607;28;20445;-72
2023/08/18 05:58:41;;;;;;;8.20;7.40;;;19.90;99.90;;;;;;5060159;28;20446;-72
2023/08/18 06:01:27;;;;;;;12.77;9.00;;;20.00;99.90;;;;;;5055420;28;20436;-72
2023/08/18 06:04:12;;;;;;;9.87;7.60;;;20.10;99.90;;;;;;5057111;28;20550;-72
2023/08/18 06:06:59;;;;;;;9.40;8.40;;;20.20;99.90;;;;;;5053498;28;20852;-72
2023/08/18 06:09:44;;;;;;;9.37;8.47;;;20.30;99.90;;;;;;5056789;28;20568;-72
2023/08/18 06:12:29;;;;;;;9.57;8.57;;;20.40;99.90;;;;;;5059490;28;20454;-72
2023/08/18 06:15:17;;;;;;;11.10;8.47;;;20.50;99.90;;;;;;5053070;28;20493;-72
2023/08/18 06:18:02;;;;;;;11.70;7.53;;;20.60;99.90;;;;;;5058927;28;21006;-72
2023/08/18 06:20:47;;;;;;;8.30;7.43;;;20.70;99.90;;;;;;5060910;28;20421;-72
2023/08/18 06:23:34;;;;;;;11.50;8.60;;;20.90;99.90;;;;;;5063410;28;20443;-72
2023/08/18 06:26:20;;;;;;;9.80;6.73;;;20.90;99.90;;;;;;5064313;28;20464;-72
2023/08/18 06:29:05;;;;;;;9.13;6.03;;;20.90;99.90;;;;;;5067839;28;20443;-72
2023/08/18 06:31:51;;;;;;;11.77;6.40;;;21.00;99.90;;;;;;5062652;28;20420;-72
2023/08/18 06:34:36;;;;;;;8.43;6.60;;;21.10;99.90;;;;;;5062431;28;20446;-72
2023/08/18 06:37:22;;;;;;;8.90;6.70;;;21.20;99.90;;;;;;5065352;28;20465;-72
2023/08/18 06:40:10;;;;;;;15.57;6.37;;;21.30;99.90;;;;;;5065726;28;20449;-72
2023/08/18 06:42:55;;;;;;;11.90;6.97;;;21.40;99.90;;;;;;5064535;28;20446;-71
2023/08/18 06:45:41;;;;;;;8.87;6.60;;;21.40;99.90;;;;;;5069613;28;20523;-72
2023/08/18 06:48:26;;;;;;;9.13;6.70;;;21.50;99.90;;;;;;5062518;28;20444;-72
2023/08/18 06:51:12;;;;;;;9.83;6.23;;;21.60;99.90;;;;;;5063163;28;20449;-72
2023/08/18 06:53:57;;;;;;;8.20;6.10;;;21.70;99.90;;;;;;5063679;28;20459;-71
2023/08/18 06:56:44;;;;;;;12.10;6.70;;;21.80;99.90;;;;;;5062001;28;20463;-72
2023/08/18 06:59:30;;;;;;;9.17;6.33;;;21.90;99.90;;;;;;5066310;28;20863;-72
2023/08/18 07:02:15;;;;;;;7.63;6.70;;;21.90;99.90;;;;;;5067502;28;20463;-72
2023/08/18 07:05:01;;;;;;;10.43;6.53;;;22.00;99.90;;;;;;5061975;28;20440;-72
2023/08/18 07:07:47;;;;;;;12.33;5.77;;;22.00;99.90;;;;;;5063257;28;20520;-72
2023/08/18 07:10:32;;;;;;;8.00;4.63;;;22.10;99.90;;;;;;5063482;28;20999;-72
2023/08/18 07:13:20;;;;;;;9.27;5.00;;;22.20;99.90;;;;;;5068164;28;20827;-72
2023/08/18 07:16:06;;;;;;;7.57;4.97;;;22.30;99.90;;;;;;5067601;28;20922;-72
2023/08/18 07:18:51;;;;;;;6.47;4.70;;;22.30;99.90;;;;;;5066063;28;20412;-72
2023/08/18 07:21:39;;;;;;;8.07;4.13;;;22.40;99.90;;;;;;5064005;28;20748;-71
2023/08/18 07:24:25;;;;;;;7.40;5.40;;;22.60;99.90;;;;;;5065323;28;20492;-71
2023/08/18 07:27:19;;;;;;;8.53;4.10;;;22.60;99.90;;;;;;5070343;28;20554;-73
2023/08/18 07:30:07;;;;;;;6.07;4.40;;;22.70;99.90;;;;;;5064811;28;20450;-72
2023/08/18 07:32:54;;;;;;;5.90;3.93;;;22.80;99.90;;;;;;5065516;28;20959;-72
2023/08/18 07:35:39;;;;;;;7.93;4.33;;;22.90;99.90;;;;;;5057424;28;20431;-72
2023/08/18 07:38:27;;;;;;;5.83;3.77;;;23.00;99.90;;;;;;5064307;28;20771;-72
2023/08/18 07:41:13;;;;;;;4.47;3.90;;;23.10;99.90;;;;;;5060298;28;20525;-73
2023/08/18 07:43:58;;;;;;;10.83;3.77;;;23.20;99.90;;;;;;5062605;28;20446;-72
2023/08/18 07:46:45;;;;;;;5.37;3.47;;;23.20;99.90;;;;;;5060997;28;20516;-72
2023/08/18 07:49:31;;;;;;;8.63;3.30;;;23.30;99.90;;;;;;5065717;28;20446;-72
2023/08/18 07:52:19;;;;;;;4.40;3.20;;;23.40;99.90;;;;;;5062247;28;20626;-73
2023/08/18 07:55:05;;;;;;;7.83;3.70;;;23.50;99.90;;;;;;5065019;28;20898;-73
2023/08/18 07:57:51;;;;;;;5.10;4.00;;;23.50;99.90;;;;;;5063091;28;20516;-73
2023/08/18 08:00:37;;;;;;;7.53;3.83;;;23.70;99.90;;;;;;5057030;28;20438;-73
2023/08/18 08:03:23;;;;;;;8.33;4.00;;;23.70;99.90;;;;;;5058491;28;20447;-72
2023/08/18 08:06:09;;;;;;;7.70;3.90;;;23.80;99.90;;;;;;5061316;28;20466;-73
2023/08/18 08:08:56;;;;;;;4.27;3.27;;;23.90;99.90;;;;;;5064079;28;20425;-72
2023/08/18 08:11:41;;;;;;;7.57;3.63;;;24.00;99.90;;;;;;5053626;28;20485;-72
2023/08/18 08:14:26;;;;;;;8.00;3.87;;;24.10;99.90;;;;;;5060104;28;20514;-73
2023/08/18 08:17:12;;;;;;;4.77;3.73;;;24.30;99.90;;;;;;5065173;28;20861;-73
2023/08/18 08:20:00;;;;;;;10.10;3.50;;;24.30;99.90;;;;;;5065362;28;20520;-73
2023/08/18 08:22:47;;;;;;;6.10;4.40;;;24.40;99.90;;;;;;5062164;28;21073;-73
2023/08/18 08:25:33;;;;;;;9.83;4.37;;;24.50;99.90;;;;;;5060673;28;22479;-73
2023/08/18 08:28:18;;;;;;;4.90;3.50;;;24.50;99.90;;;;;;5066433;28;20719;-72
2023/08/18 08:31:04;;;;;;;7.43;3.70;;;24.50;99.90;;;;;;5059819;28;20450;-73
2023/08/18 08:33:49;;;;;;;8.20;4.00;;;24.50;99.90;;;;;;5061207;28;21005;-73
2023/08/18 08:36:36;;;;;;;8.00;3.40;;;24.60;99.90;;;;;;5059841;28;20492;-72
2023/08/18 08:39:22;;;;;;;4.73;2.83;;;24.70;99.90;;;;;;5060743;28;20593;-73
2023/08/18 08:42:07;;;;;;;5.73;3.60;;;24.60;99.90;;;;;;5056542;28;22515;-73
2023/08/18 08:44:53;;;;;;;4.50;3.67;;;24.70;99.90;;;;;;5059635;28;20420;-73
2023/08/18 08:47:39;;;;;;;8.33;3.60;;;24.70;99.90;;;;;;5054445;28;20989;-73
2023/08/18 08:50:29;;;;;;;7.27;3.70;;;24.90;99.90;;;;;;5055518;28;20877;-73
2023/08/18 08:53:22;;;;;;;4.87;2.63;;;25.10;99.90;;;;;;5058645;28;20571;-73
2023/08/18 08:56:08;;;;;;;4.63;3.10;;;25.10;99.90;;;;;;5062358;28;20413;-73
2023/08/18 08:58:54;;;;;;;5.50;3.10;;;25.10;99.90;;;;;;5056160;28;20418;-73
2023/08/18 09:01:40;;;;;;;4.67;3.00;;;25.20;99.90;;;;;;5058650;28;20419;-73
2023/08/18 09:04:25;;;;;;;7.60;3.40;;;25.40;99.90;;;;;;5059969;28;20452;-73
2023/08/18 09:07:12;;;;;;;5.03;3.20;;;25.40;99.90;;;;;;5061611;28;20497;-73
2023/08/18 09:09:59;;;;;;;9.90;2.97;;;25.40;99.90;;;;;;5060068;28;20454;-73
2023/08/18 09:12:46;;;;;;;6.13;3.70;;;25.50;99.90;;;;;;5061491;28;20481;-73
2023/08/18 09:15:32;;;;;;;5.57;3.80;;;25.60;99.90;;;;;;5059132;28;20487;-73
2023/08/18 09:18:18;;;;;;;8.40;3.40;;;25.60;99.90;;;;;;5056722;28;20486;-73
2023/08/18 09:21:06;;;;;;;8.83;3.70;;;25.70;99.90;;;;;;5057143;28;20451;-73
2023/08/18 09:23:55;;;;;;;7.00;3.73;;;25.70;99.90;;;;;;5063732;28;20448;-73
2023/08/18 09:26:42;;;;;;;5.13;3.20;;;25.70;99.90;;;;;;5055579;28;20605;-73
2023/08/18 09:29:28;;;;;;;4.07;2.30;;;25.70;99.90;;;;;;5060725;28;20943;-74
2023/08/18 09:32:13;;;;;;;4.80;3.23;;;25.80;99.90;;;;;;5057532;28;20463;-73
2023/08/18 09:34:59;;;;;;;11.13;3.10;;;26.00;99.90;;;;;;5064821;28;20448;-73
2023/08/18 09:37:44;;;;;;;4.97;3.27;;;26.10;99.90;;;;;;5057730;28;20471;-73
2023/08/18 09:40:30;;;;;;;3.83;2.97;;;26.10;99.90;;;;;;5063832;28;20807;-73
2023/08/18 09:43:17;;;;;;;3.97;2.80;;;26.10;99.90;;;;;;5056120;28;20456;-73
2023/08/18 09:46:04;;;;;;;4.03;2.93;;;26.20;99.90;;;;;;5059312;28;20598;-73
2023/08/18 09:48:51;;;;;;;4.53;2.83;;;26.40;99.90;;;;;;5063885;28;20939;-74
2023/08/18 09:51:37;;;;;;;5.10;3.30;;;26.40;99.90;;;;;;5062326;28;20492;-73
2023/08/18 09:54:25;;;;;;;5.00;2.77;;;26.50;97.30;;;;;;5059905;28;20932;-73
2023/08/18 09:57:21;;;;;;;15.43;3.43;;;26.60;99.90;;;;;;5060263;28;20429;-73
2023/08/18 10:00:14;;;;;;;4.60;2.77;;;26.60;94.10;;;;;;5060316;28;20508;-73
2023/08/18 10:03:03;;;;;;;7.10;3.57;;;26.60;94.60;;;;;;5057984;28;20961;-74
2023/08/18 10:05:49;;;;;;;6.30;3.27;;;26.70;97.40;;;;;;5062030;28;20450;-74
2023/08/18 10:08:35;;;;;;;5.13;2.77;;;26.80;97.50;;;;;;5059835;28;21968;-73
2023/08/18 10:11:21;;;;;;;6.57;2.70;;;26.90;97.30;;;;;;5062899;28;20524;-73
2023/08/18 10:14:06;;;;;;;5.47;2.60;;;27.10;99.40;;;;;;5058588;28;20453;-73
2023/08/18 10:16:55;;;;;;;5.90;3.20;;;27.20;93.70;;;;;;5059923;28;20466;-73
2023/08/18 10:19:47;;;;;;;4.80;2.70;;;27.20;75.20;;;;;;5058511;28;21170;-74
2023/08/18 10:22:35;;;;;;;4.77;2.13;;;27.30;75.40;;;;;;5062427;28;20463;-74
2023/08/18 10:25:25;;;;;;;4.10;2.43;;;27.40;68.20;;;;;;5053979;28;20925;-73
2023/08/18 10:28:13;;;;;;;8.70;3.10;;;27.50;68.20;;;;;;5062131;28;20879;-73
2023/08/18 10:30:59;;;;;;;5.87;2.90;;;27.60;84.00;;;;;;5055994;28;20450;-73
2023/08/18 10:33:49;;;;;;;8.57;2.70;;;27.70;83.60;;;;;;5056969;28;20848;-73
2023/08/18 10:36:36;;;;;;;6.80;3.23;;;27.80;72.00;;;;;;5052329;28;20854;-74
2023/08/18 10:39:26;;;;;;;7.03;3.00;;;27.90;89.90;;;;;;5058717;28;20464;-73
2023/08/18 10:42:15;;;;;;;5.83;2.90;;;28.00;92.70;;;;;;5061069;28;20810;-73
2023/08/18 10:45:03;;;;;;;5.27;2.60;;;28.10;83.70;;;;;;5059512;28;20439;-73
2023/08/18 10:47:49;;;;;;;3.13;1.87;;;28.30;70.80;;;;;;5060639;28;20477;-73
2023/08/18 10:50:39;;;;;;;7.70;2.73;;;28.40;63.70;;;;;;5057672;28;22008;-73
2023/08/18 10:53:24;;;;;;;3.73;2.10;;;28.50;61.20;;;;;;5059936;28;20583;-73
2023/08/18 10:56:10;;;;;;;8.57;2.40;;;28.60;62.00;;;;;;5055883;28;20933;-71
2023/08/18 10:58:55;;;;;;;7.60;2.57;;;28.70;58.40;;;;;;5059085;28;20444;-73
2023/08/18 11:01:42;;;;;;;9.30;2.47;;;28.80;77.00;;;;;;5060854;28;20487;-73
2023/08/18 11:04:29;;;;;;;4.37;1.87;;;28.90;60.20;;;;;;5061768;28;20854;-73
2023/08/18 11:07:15;;;;;;;5.73;1.90;;;29.00;41.60;;;;;;5059659;28;20494;-73
2023/08/18 11:10:01;;;;;;;4.83;2.23;;;29.10;47.00;;;;;;5062445;28;20450;-73
2023/08/18 11:12:48;;;;;;;5.13;2.23;;;29.30;48.30;;;;;;5060634;28;20458;-73
2023/08/18 11:15:33;;;;;;;4.70;2.67;;;29.30;34.10;;;;;;5064275;28;20958;-73
2023/08/18 11:18:20;;;;;;;2.60;1.60;;;29.30;32.70;;;;;;5060674;28;20442;-73
2023/08/18 11:21:06;;;;;;;5.10;2.47;;;29.40;27.00;;;;;;5064429;28;20454;-72
2023/08/18 11:23:53;;;;;;;3.80;1.70;;;29.40;29.60;;;;;;5063147;28;20969;-72
2023/08/18 11:26:39;;;;;;;4.43;1.80;;;29.40;31.90;;;;;;5061894;28;20595;-73
2023/08/18 11:29:28;;;;;;;4.63;1.97;;;29.50;32.90;;;;;;5059033;28;20438;-73
2023/08/18 11:32:13;;;;;;;3.80;2.40;;;29.60;27.90;;;;;;5060867;28;20450;-73
2023/08/18 11:35:00;;;;;;;6.90;2.50;;;29.70;27.30;;;;;;5063668;28;20580;-72
2023/08/18 11:37:46;;;;;;;6.47;1.87;;;29.80;39.10;;;;;;5061637;28;21178;-73
2023/08/18 11:40:37;;;;;;;5.00;3.00;;;29.80;26.60;;;;;;5065502;28;20457;-73
2023/08/18 11:43:23;;;;;;;4.67;2.30;;;29.90;27.60;;;;;;5065918;28;20442;-73
2023/08/18 11:46:08;;;;;;;5.40;2.20;;;30.00;27.60;;;;;;5062032;28;20439;-73
2023/08/18 11:48:54;;;;;;;7.37;2.13;;;29.90;26.00;;;;;;5061448;28;20484;-73
2023/08/18 11:51:55;;;;;;;5.10;1.90;;;30.00;25.80;;;;;;5061631;28;20980;-73
2023/08/18 11:54:42;;;;;;;4.00;2.10;;;30.20;27.40;;;;;;5062535;28;20505;-72
2023/08/18 11:57:28;;;;;;;7.77;2.43;;;30.20;25.70;;;;;;5063251;28;20820;-73
2023/08/18 12:00:16;;;;;;;4.77;2.27;;;30.20;25.50;;;;;;5063890;28;22331;-73
2023/08/18 12:03:02;;;;;;;7.63;2.23;;;30.30;23.60;;;;;;5068835;28;20461;-73
2023/08/18 12:05:47;;;;;;;5.40;2.50;;;30.40;24.70;;;;;;5065996;28;20526;-73
2023/08/18 12:08:33;;;;;;;3.70;2.30;;;30.40;28.00;;;;;;5065260;28;20470;-73
2023/08/18 12:11:19;;;;;;;5.17;1.93;;;30.50;23.70;;;;;;5060044;28;20521;-73
2023/08/18 12:14:06;;;;;;;3.87;1.70;;;30.40;22.90;;;;;;5057172;28;20577;-73
2023/08/18 12:16:51;;;;;;;4.23;2.20;;;30.50;22.50;;;;;;5060834;28;20501;-73
2023/08/18 12:19:37;;;;;;;3.10;1.80;;;30.50;23.50;;;;;;5063638;28;20451;-73
2023/08/18 12:22:22;;;;;;;5.67;2.00;;;30.50;21.80;;;;;;5062879;28;20450;-73
2023/08/18 12:25:09;;;;;;;3.27;1.97;;;30.60;24.70;;;;;;5059590;28;20470;-73
2023/08/18 12:27:54;;;;;;;4.30;1.90;;;30.70;26.00;;;;;;5060129;28;20824;-73
2023/08/18 12:30:41;;;;;;;4.67;1.83;;;30.80;25.40;;;;;;5057859;28;20446;-73
2023/08/18 12:33:27;;;;;;;3.40;1.80;;;31.00;22.60;;;;;;5055276;28;20480;-74
2023/08/18 12:36:12;;;;;;;3.90;2.30;;;31.00;22.50;;;;;;5058360;28;20562;-73
2023/08/18 12:38:58;;;;;;;6.30;2.63;;;31.00;22.80;;;;;;5060130;28;20450;-73
2023/08/18 12:41:43;;;;;;;3.87;2.00;;;31.10;24.60;;;;;;5055041;28;20579;-73
2023/08/18 12:44:29;;;;;;;4.60;2.03;;;31.20;23.70;;;;;;5061985;28;21223;-74
2023/08/18 12:47:16;;;;;;;5.77;2.27;;;31.40;24.60;;;;;;5056480;28;20825;-73
2023/08/18 12:50:02;;;;;;;6.07;2.77;;;31.50;23.10;;;;;;5063722;28;20811;-72
2023/08/18 12:52:47;;;;;;;4.23;2.13;;;31.60;23.10;;;;;;5065566;28;20440;-73
2023/08/18 12:55:33;;;;;;;6.50;2.27;;;31.50;19.40;;;;;;5062210;28;20673;-73
2023/08/18 12:58:18;;;;;;;6.13;2.00;;;31.50;21.10;;;;;;5062261;28;20841;-73
2023/08/18 13:01:07;;;;;;;4.33;2.40;;;31.50;19.00;;;;;;5060270;28;20488;-73
2023/08/18 13:03:53;;;;;;;4.10;2.27;;;31.60;20.00;;;;;;5067159;28;20524;-73
2023/08/18 13:06:39;;;;;;;3.97;2.10;;;31.70;20.80;;;;;;5067741;28;20706;-73
2023/08/18 13:09:26;;;;;;;4.13;2.10;;;31.80;19.10;;;;;;5063030;28;21505;-73
2023/08/18 13:12:12;;;;;;;5.10;2.17;;;32.00;20.60;;;;;;5063440;28;20447;-73
2023/08/18 13:14:57;;;;;;;6.90;2.80;;;32.10;21.90;;;;;;5063703;28;20808;-73
2023/08/18 13:17:43;;;;;;;4.00;2.20;;;32.20;21.70;;;;;;5064835;28;20455;-74
2023/08/18 13:20:30;;;;;;;5.00;2.70;;;32.30;20.20;;;;;;5064747;28;20451;-73
2023/08/18 13:23:15;;;;;;;7.33;2.63;;;32.30;19.60;;;;;;5061940;28;20452;-73
2023/08/18 13:26:01;;;;;;;8.83;2.40;;;32.50;19.80;;;;;;5059013;28;20966;-73
2023/08/18 13:28:47;;;;;;;3.80;2.03;;;32.60;18.90;;;;;;5064997;28;20556;-74
2023/08/18 13:31:32;;;;;;;7.17;2.50;;;32.50;17.10;;;;;;5060177;28;20450;-73
2023/08/18 13:34:17;;;;;;;3.40;2.00;;;32.60;19.00;;;;;;5065134;28;20461;-74
2023/08/18 13:37:04;;;;;;;3.50;1.67;;;32.70;18.30;;;;;;5063649;28;20467;-73
2023/08/18 13:39:50;;;;;;;6.33;2.20;;;32.80;19.10;;;;;;5058653;28;20457;-73
2023/08/18 13:42:35;;;;;;;3.97;2.10;;;32.80;19.00;;;;;;5056472;28;20803;-73
2023/08/18 13:45:21;;;;;;;5.10;2.50;;;32.90;17.70;;;;;;5058441;28;20473;-73
2023/08/18 13:48:07;;;;;;;6.67;1.90;;;33.10;17.60;;;;;;5063471;28;20827;-73
2023/08/18 13:50:54;;;;;;;3.07;1.60;;;33.20;17.10;;;;;;5056719;28;20460;-74
2023/08/18 13:53:41;;;;;;;7.03;2.20;;;33.40;16.00;;;;;;5059233;28;20472;-73
2023/08/18 13:56:26;;;;;;;7.37;2.20;;;33.50;19.00;;;;;;5055086;28;21268;-73
2023/08/18 13:59:12;;;;;;;4.47;1.97;;;33.50;17.90;;;;;;5060115;28;21043;-73
2023/08/18 14:01:58;;;;;;;3.80;2.00;;;33.60;17.70;;;;;;5055383;28;21595;-72
2023/08/18 14:04:43;;;;;;;8.67;2.00;;;33.50;15.30;;;;;;5056984;28;20817;-71
2023/08/18 14:07:29;;;;;;;4.90;2.10;;;33.50;16.90;;;;;;5056704;28;20607;-72
2023/08/18 14:10:16;;;;;;;3.90;1.93;;;33.60;17.40;;;;;;5056575;28;21081;-72
2023/08/18 14:13:01;;;;;;;8.73;2.63;;;33.70;18.10;;;;;;5060974;28;20597;-72
2023/08/18 14:15:47;;;;;;;4.20;2.10;;;33.70;16.90;;;;;;5061185;28;20452;-72
2023/08/18 14:18:32;;;;;;;5.33;2.13;;;33.70;16.10;;;;;;5061268;28;20438;-72
2023/08/18 14:21:18;;;;;;;5.73;2.40;;;33.60;15.10;;;;;;5056793;28;20457;-72